Flight Track Log - Related Links

Times and Time Zones

All times are in EDT time to prevent confusion due to time zone crossing. See the RPA3253 flight status page for this flight to view local times or setup timezone preferences in your user account.

Time Position Orientation Groundspeed Altitude Reporting Facility
EDT Latitude Longitude Course Direction KTS MPH feet Rate Location/Type
Thu 08:47:04 PM 42.7694 -73.8089 320° Northwest 135 155 1,400  Level Boston Center
Thu 08:48:10 PM 42.8147 -73.8608 320° Northwest 246 283 3,400 2,169 Climbing Boston Center
Thu 08:48:27 PM 42.8289 -73.8811 314° West 249 287 4,400 3,351 Climbing Boston Center
Thu 08:49:27 PM 42.8636 -73.9469 306° West 251 289 7,700 3,150 Climbing Boston Center
Thu 08:50:27 PM 42.8722 -74.0633 276° West 257 296 10,700 2,500 Climbing Boston Center
Thu 08:51:27 PM 42.8336 -74.1444 237° Southwest 294 338 12,700 2,350 Climbing Boston Center
Thu 08:52:27 PM 42.7383 -74.1136 167° South 247 284 15,400 2,400 Climbing Boston Center
Thu 08:53:27 PM 42.6431 -74.0658 160° South 308 354 17,500 2,100 Climbing Boston Center
Thu 08:54:27 PM 42.5458 -74.0125 158° South 365 420 19,600 2,050 Climbing Boston Center
Thu 08:55:27 PM 42.4403 -73.9564 159° South 380 437 21,600 1,900 Climbing Boston Center
Thu 08:56:27 PM 42.3347 -73.9006 159° South 399 459 23,400 1,750 Climbing Boston Center
Thu 08:57:27 PM 42.2292 -73.8447 159° South 410 472 25,100 1,500 Climbing Boston Center
Thu 08:58:27 PM 42.1172 -73.7892 160° South 415 478 26,400 1,300 Climbing Boston Center
Thu 08:59:27 PM 42.0075 -73.7281 158° South 425 489 27,700 1,350 Climbing Boston Center
Thu 09:00:27 PM 41.8956 -73.6700 159° South 425 489 29,100 1,350 Climbing Boston Center
Thu 09:01:27 PM 41.7858 -73.6178 160° South 425 489 30,400 1,400 Climbing Boston Center
Thu 09:02:27 PM 41.6733 -73.5989 173° South 416 479 31,900 1,038 Climbing Boston Center
Thu 09:04:55 PM 41.4594 -73.7442 207° Southwest 365 420 34,000 606 Climbing New York Center
Thu 09:05:55 PM 41.3800 -73.8375 221° Southwest 376 433 34,000  Level New York Center
Thu 09:06:53 PM 41.2983 -73.9331 221° Southwest 386 444 34,000  Level New York Center
Thu 09:07:53 PM 41.2167 -74.0258 221° Southwest 392 451 34,000  Level New York Center
Thu 09:08:54 PM 41.1350 -74.1211 221° Southwest 397 457 34,000  Level New York Center
Thu 09:09:53 PM 41.0489 -74.2131 219° Southwest 397 457 34,000  Level New York Center
Thu 09:10:53 PM 40.9669 -74.3050 220° Southwest 397 457 34,000  Level New York Center
Thu 09:11:53 PM 40.8828 -74.4022 221° Southwest 402 463 34,000  Level New York Center
Thu 09:12:56 PM 40.8008 -74.4964 221° Southwest 397 457 34,000  Level New York Center
Thu 09:13:53 PM 40.7164 -74.5906 220° Southwest 397 457 34,000  Level New York Center
Thu 09:14:54 PM 40.6342 -74.6869 222° Southwest 397 457 34,000  Level New York Center
Thu 09:15:55 PM 40.5539 -74.7808 222° Southwest 397 457 34,000  Level New York Center
Thu 09:16:54 PM 40.4814 -74.8883 228° Southwest 397 457 34,000  Level New York Center
Thu 09:17:55 PM 40.4069 -74.9931 227° Southwest 397 457 34,000  Level New York Center
Thu 09:18:54 PM 40.3344 -75.0947 227° Southwest 392 451 34,000  Level New York Center
Thu 09:19:55 PM 40.2661 -75.1939 228° Southwest 386 444 34,000  Level New York Center
Thu 09:20:54 PM 40.1956 -75.2953 228° Southwest 386 444 34,000  Level New York Center
Thu 09:21:53 PM 40.1228 -75.3964 227° Southwest 386 444 34,000 403 Level New York Center
Thu 09:22:53 PM 40.0522 -75.4947 227° Southwest 386 444 34,800 885 Climbing New York Center
Thu 09:23:55 PM 39.9817 -75.5903 226° Southwest 386 444 35,800 590 Climbing New York Center
Thu 09:24:55 PM 39.9108 -75.6883 227° Southwest 386 444 36,000 102 Climbing New York Center
Thu 09:25:53 PM 39.8461 -75.7919 231° Southwest 386 444 36,000  Level New York Center
Thu 09:26:53 PM 39.7769 -75.8950 229° Southwest 380 437 36,000  Level New York Center
Thu 09:27:54 PM 39.7161 -75.9986 233° Southwest 375 432 36,000  Level New York Center
Thu 09:30:11 PM 39.5703 -76.2294 231° Southwest 377 434 36,000  Level Washington Center
Thu 09:31:11 PM 39.5031 -76.3367 231° Southwest 382 440 36,000  Level Washington Center
Thu 09:32:09 PM 39.4336 -76.4381 228° Southwest 377 434 36,000  Level Washington Center
Thu 09:33:10 PM 39.3597 -76.5472 229° Southwest 372 428 36,000  Level Washington Center
Thu 09:34:11 PM 39.2944 -76.6483 230° Southwest 372 428 36,000  Level Washington Center
Thu 09:35:09 PM 39.2289 -76.7544 231° Southwest 372 428 36,000  Level Washington Center
Thu 09:36:09 PM 39.1611 -76.8578 230° Southwest 372 428 36,000  Level Washington Center
Thu 09:37:11 PM 39.0931 -76.9608 230° Southwest 372 428 36,000  Level Washington Center
Thu 09:38:11 PM 39.0233 -77.0583 227° Southwest 372 428 36,000  Level Washington Center
Thu 09:39:09 PM 38.9428 -77.1503 222° Southwest 377 434 36,000  Level Washington Center
Thu 09:40:09 PM 38.8647 -77.2367 221° Southwest 377 434 36,000  Level Washington Center
Thu 09:41:10 PM 38.7822 -77.3225 219° Southwest 377 434 36,000  Level Washington Center
Thu 09:42:10 PM 38.7100 -77.4008 220° Southwest 382 440 36,000  Level Washington Center
Thu 09:43:11 PM 38.6294 -77.4892 221° Southwest 382 440 36,000  Level Washington Center
Thu 09:44:11 PM 38.5508 -77.5775 221° Southwest 382 440 36,000  Level Washington Center
Thu 09:45:10 PM 38.4703 -77.6656 221° Southwest 382 440 36,000  Level Washington Center
Thu 09:46:11 PM 38.3894 -77.7533 220° Southwest 382 440 36,000  Level Washington Center
Thu 09:47:10 PM 38.3108 -77.8383 220° Southwest 382 440 36,000  Level Washington Center
Thu 09:48:10 PM 38.2300 -77.9231 219° Southwest 382 440 36,000  Level Washington Center
Thu 09:49:09 PM 38.1511 -78.0106 221° Southwest 382 440 36,000  Level Washington Center
Thu 09:50:09 PM 38.0722 -78.0950 220° Southwest 382 440 36,000  Level Washington Center
Thu 09:51:10 PM 37.9928 -78.1925 224° Southwest 374 430 36,000 -50 Level Washington Center
Thu 09:52:10 PM 37.9239 -78.2928 229° Southwest 369 425 35,900 -744 Descending Washington Center
Thu 09:53:11 PM 37.8614 -78.3800 228° Southwest 375 432 34,500 -958 Descending Washington Center
Thu 09:54:09 PM 37.7922 -78.4797 229° Southwest 380 437 34,000 -254 Descending Washington Center
Thu 09:55:09 PM 37.7231 -78.5769 228° Southwest 380 437 34,000  Level Washington Center
Thu 09:56:10 PM 37.6397 -78.6628 219° Southwest 380 437 34,000 -149 Level Washington Center
Thu 09:57:10 PM 37.5497 -78.7536 219° Southwest 385 443 33,700 -893 Descending Washington Center
Thu 09:58:11 PM 37.4617 -78.8467 220° Southwest 397 457 32,200 -843 Descending Washington Center
Thu 09:59:11 PM 37.3717 -78.9344 218° Southwest 410 472 32,000 -100 Descending Washington Center
Thu 10:00:11 PM 37.2836 -79.0269 220° Southwest 415 478 32,000  Level Washington Center
Thu 10:01:09 PM 37.1933 -79.1194 219° Southwest 415 478 32,000 -254 Level Washington Center
Thu 10:02:09 PM 37.1136 -79.2017 219° Southwest 415 478 31,500 -800 Descending Washington Center
Thu 10:03:09 PM 37.0253 -79.2914 219° Southwest 415 478 30,400 -1,091 Descending Washington Center
Thu 10:04:10 PM 36.9328 -79.3831 218° Southwest 415 478 29,300 -1,082 Descending Washington Center
Thu 10:05:11 PM 36.8419 -79.4797 220° Southwest 421 484 28,200 -655 Descending Washington Center
Thu 10:06:09 PM 36.7383 -79.5833 219° Southwest 434 499 28,000 -101 Descending Washington Center
Thu 10:07:10 PM 36.6433 -79.6794 219° Southwest 440 506 28,000 -658 Level Washington Center
Thu 10:08:44 PM 36.4969 -79.8242 218° Southwest 430 495 26,300 -1,481 Descending Atlanta Center
Thu 10:09:44 PM 36.4042 -79.9167 219° Southwest 430 495 24,200 -2,100 Descending Atlanta Center
Thu 10:10:44 PM 36.3253 -79.9928 218° Southwest 424 488 22,100 -1,100 Descending Atlanta Center
Thu 10:11:44 PM 36.2381 -80.0719 216° Southwest 417 480 22,000 -750 Descending Atlanta Center
Thu 10:12:44 PM 36.1447 -80.1511 214° Southwest 412 474 20,600 -1,850 Descending Atlanta Center
Thu 10:13:44 PM 36.0453 -80.2356 214° Southwest 407 468 18,300 -2,225 Descending Atlanta Center
Thu 10:14:13 PM 36.0067 -80.2731 218° Southwest 391 450 17,300 -2,200 Descending Atlanta Center
Thu 10:14:44 PM 35.9597 -80.3061 210° Southwest 397 457 16,100 -1,912 Descending Atlanta Center
Thu 10:15:44 PM 35.8767 -80.3817 216° Southwest 342 394 14,400 -1,565 Descending Atlanta Center
Thu 10:16:39 PM 35.8136 -80.4383 216° Southwest 314 361 13,100 -1,050 Descending Atlanta Center
Thu 10:17:44 PM 35.7300 -80.5033 212° Southwest 332 382 12,300 -828 Descending Atlanta Center
Thu 10:18:35 PM 35.6689 -80.5572 216° Southwest 325 374 11,500 -667 Descending Atlanta Center
Thu 10:19:41 PM 35.5894 -80.6244 215° Southwest 316 364 11,000 -236 Descending Atlanta Center
Thu 10:20:42 PM 35.5119 -80.6889 214° Southwest 315 362 11,000  Level Atlanta Center
Thu 10:21:43 PM 35.4383 -80.7506 214° Southwest 320 368 11,000  Level Atlanta Center
Thu 10:22:44 PM 35.3628 -80.8094 212° Southwest 325 374 11,000 -496 Level Atlanta Center
Thu 10:23:44 PM 35.2886 -80.8406 199° South 299 344 10,000 -1,172 Descending Atlanta Center
Thu 10:24:52 PM 35.2069 -80.8333 176° South 275 316 8,500 -1,581 Descending Atlanta Center
Thu 10:25:53 PM 35.1233 -80.8264 176° South 272 313 6,600 -1,736 Descending Atlanta Center
Thu 10:26:53 PM 35.0525 -80.8292 182° South 261 300 5,000 -1,140 Descending Atlanta Center
Thu 10:27:54 PM 35.0311 -80.8908 247° West 169 194 4,300 -738 Descending Atlanta Center
Thu 10:28:55 PM 35.0611 -80.9253 317° Northwest 139 160 3,500 -776 Descending Atlanta Center
Thu 10:29:50 PM 35.1008 -80.9289 356° North 152 175 2,800 -787 Descending Atlanta Center
Thu 10:30:57 PM 35.1431 -80.9425 345° North 143 165 1,900 -738 Descending Atlanta Center
Thu 10:31:52 PM 35.1683 -80.9517 343° North 117 135 1,300 -655 Descending Atlanta Center
Thu 10:33:00 PM 35.2000 -80.9333 North  Level FlightAware Approximate

Login

Don't have an account? Register now (free) for customized features, flight alerts, and more!